sensor_id;sensor_type;location;lat;lon;timestamp;pressure;altitude;pressure_sealevel;temperature;humidity
28628;BME280;15815;46.760;19.604;2023-01-27T00:02:16;100281.31;;;1.27;100.00
28628;BME280;15815;46.760;19.604;2023-01-27T00:04:41;100300.16;;;1.33;100.00
28628;BME280;15815;46.760;19.604;2023-01-27T00:07:07;100294.59;;;1.33;100.00
28628;BME280;15815;46.760;19.604;2023-01-27T00:09:32;100276.13;;;1.25;100.00
28628;BME280;15815;46.760;19.604;2023-01-27T00:11:58;100280.19;;;1.28;100.00
28628;BME280;15815;46.760;19.604;2023-01-27T00:14:23;100272.91;;;1.23;100.00
28628;BME280;15815;46.760;19.604;2023-01-27T00:16:49;100285.84;;;1.31;100.00
28628;BME280;15815;46.760;19.604;2023-01-27T00:19:14;100281.69;;;1.25;100.00
28628;BME280;15815;46.760;19.604;2023-01-27T00:21:40;100303.25;;;1.32;100.00
28628;BME280;15815;46.760;19.604;2023-01-27T00:24:10;100302.56;;;1.35;100.00
28628;BME280;15815;46.760;19.604;2023-01-27T00:26:36;100300.03;;;1.30;100.00
28628;BME280;15815;46.760;19.604;2023-01-27T00:29:02;100296.31;;;1.26;100.00
28628;BME280;15815;46.760;19.604;2023-01-27T00:31:27;100296.66;;;1.24;100.00
28628;BME280;15815;46.760;19.604;2023-01-27T00:33:53;100315.59;;;1.34;100.00
28628;BME280;15815;46.760;19.604;2023-01-27T00:36:19;100304.75;;;1.29;100.00
28628;BME280;15815;46.760;19.604;2023-01-27T00:38:44;100306.38;;;1.30;100.00
28628;BME280;15815;46.760;19.604;2023-01-27T00:41:10;100299.91;;;1.26;100.00
28628;BME280;15815;46.760;19.604;2023-01-27T00:43:38;100303.25;;;1.32;100.00
28628;BME280;15815;46.760;19.604;2023-01-27T00:46:04;100303.25;;;1.32;100.00
28628;BME280;15815;46.760;19.604;2023-01-27T00:48:29;100305.44;;;1.26;100.00
28628;BME280;15815;46.760;19.604;2023-01-27T00:50:55;100304.50;;;1.22;100.00
28628;BME280;15815;46.760;19.604;2023-01-27T00:53:24;100311.19;;;1.21;100.00
28628;BME280;15815;46.760;19.604;2023-01-27T00:55:49;100288.81;;;1.14;100.00
28628;BME280;15815;46.760;19.604;2023-01-27T00:58:15;100303.25;;;1.32;100.00
28628;BME280;15815;46.760;19.604;2023-01-27T01:00:40;100305.00;;;1.36;100.00
28628;BME280;15815;46.760;19.604;2023-01-27T01:03:06;100309.72;;;1.36;100.00
28628;BME280;15815;46.760;19.604;2023-01-27T01:05:32;100310.53;;;1.36;100.00
28628;BME280;15815;46.760;19.604;2023-01-27T01:07:58;100288.13;;;1.29;100.00
28628;BME280;15815;46.760;19.604;2023-01-27T01:10:24;100299.56;;;1.28;100.00
28628;BME280;15815;46.760;19.604;2023-01-27T01:12:49;100308.44;;;1.33;100.00
28628;BME280;15815;46.760;19.604;2023-01-27T01:15:15;100314.69;;;1.30;100.00
28628;BME280;15815;46.760;19.604;2023-01-27T01:17:40;100306.03;;;1.32;100.00
28628;BME280;15815;46.760;19.604;2023-01-27T01:20:07;100303.81;;;1.25;100.00
28628;BME280;15815;46.760;19.604;2023-01-27T01:22:34;100306.50;;;1.34;100.00
28628;BME280;15815;46.760;19.604;2023-01-27T01:25:00;100304.06;;;1.32;100.00
28628;BME280;15815;46.760;19.604;2023-01-27T01:27:25;100301.09;;;1.37;100.00
28628;BME280;15815;46.760;19.604;2023-01-27T01:29:51;100288.38;;;1.36;100.00
28628;BME280;15815;46.760;19.604;2023-01-27T01:32:16;100283.53;;;1.33;100.00
28628;BME280;15815;46.760;19.604;2023-01-27T01:34:43;100303.63;;;1.42;100.00
28628;BME280;15815;46.760;19.604;2023-01-27T01:37:09;100298.09;;;1.42;100.00
28628;BME280;15815;46.760;19.604;2023-01-27T01:39:34;100253.19;;;1.24;100.00
28628;BME280;15815;46.760;19.604;2023-01-27T01:42:00;100280.22;;;1.40;100.00
28628;BME280;15815;46.760;19.604;2023-01-27T01:44:29;100265.19;;;1.29;100.00
28628;BME280;15815;46.760;19.604;2023-01-27T01:46:55;100255.59;;;1.26;100.00
28628;BME280;15815;46.760;19.604;2023-01-27T01:49:25;100275.69;;;1.35;100.00
28628;BME280;15815;46.760;19.604;2023-01-27T01:51:58;100270.94;;;1.36;100.00
28628;BME280;15815;46.760;19.604;2023-01-27T01:54:29;100265.41;;;1.36;100.00
28628;BME280;15815;46.760;19.604;2023-01-27T01:57:17;100276.19;;;1.37;100.00
28628;BME280;15815;46.760;19.604;2023-01-27T02:00:03;100268.69;;;1.38;100.00
28628;BME280;15815;46.760;19.604;2023-01-27T02:02:30;100280.56;;;1.38;100.00
28628;BME280;15815;46.760;19.604;2023-01-27T02:05:16;100277.53;;;1.31;100.00
28628;BME280;15815;46.760;19.604;2023-01-27T02:10:10;100258.72;;;1.24;100.00
28628;BME280;15815;46.760;19.604;2023-01-27T02:12:35;100251.56;;;1.23;100.00
28628;BME280;15815;46.760;19.604;2023-01-27T02:15:03;100258.16;;;1.31;100.00
28628;BME280;15815;46.760;19.604;2023-01-27T02:17:29;100260.22;;;1.34;100.00
28628;BME280;15815;46.760;19.604;2023-01-27T02:20:05;100260.22;;;1.34;100.00
28628;BME280;15815;46.760;19.604;2023-01-27T02:27:59;100242.59;;;1.39;100.00
28628;BME280;15815;46.760;19.604;2023-01-27T02:30:27;100241.53;;;1.31;100.00
28628;BME280;15815;46.760;19.604;2023-01-27T02:32:53;100243.59;;;1.34;100.00
28628;BME280;15815;46.760;19.604;2023-01-27T02:38:20;100238.97;;;1.26;100.00
28628;BME280;15815;46.760;19.604;2023-01-27T02:40:48;100235.19;;;1.31;100.00
28628;BME280;15815;46.760;19.604;2023-01-27T02:43:16;100233.78;;;1.24;100.00
28628;BME280;15815;46.760;19.604;2023-01-27T02:45:45;100224.69;;;1.24;100.00
28628;BME280;15815;46.760;19.604;2023-01-27T02:48:11;100231.94;;;1.29;100.00
28628;BME280;15815;46.760;19.604;2023-01-27T02:50:42;100232.75;;;1.29;100.00
28628;BME280;15815;46.760;19.604;2023-01-27T02:53:08;100196.31;;;1.15;100.00
28628;BME280;15815;46.760;19.604;2023-01-27T02:55:33;100224.00;;;1.27;100.00
28628;BME280;15815;46.760;19.604;2023-01-27T02:57:59;100198.59;;;1.13;100.00
28628;BME280;15815;46.760;19.604;2023-01-27T03:00:25;100218.91;;;1.29;100.00
28628;BME280;15815;46.760;19.604;2023-01-27T03:02:50;100211.88;;;1.32;100.00
28628;BME280;15815;46.760;19.604;2023-01-27T03:05:16;100184.41;;;1.14;100.00
28628;BME280;15815;46.760;19.604;2023-01-27T03:07:43;100201.03;;;1.27;100.00
28628;BME280;15815;46.760;19.604;2023-01-27T03:10:10;100216.84;;;1.26;100.00
28628;BME280;15815;46.760;19.604;2023-01-27T03:12:36;100225.72;;;1.32;100.00
28628;BME280;15815;46.760;19.604;2023-01-27T03:15:03;100184.03;;;1.04;100.00
28628;BME280;15815;46.760;19.604;2023-01-27T03:17:28;100215.44;;;1.20;99.94
28628;BME280;15815;46.760;19.604;2023-01-27T03:19:54;100218.44;;;1.27;100.00
28628;BME280;15815;46.760;19.604;2023-01-27T03:22:22;100208.06;;;1.24;99.93
28628;BME280;15815;46.760;19.604;2023-01-27T03:24:48;100213.59;;;1.24;99.79
28628;BME280;15815;46.760;19.604;2023-01-27T03:27:13;100211.63;;;1.12;99.79
28628;BME280;15815;46.760;19.604;2023-01-27T03:29:39;100220.28;;;1.11;99.53
28628;BME280;15815;46.760;19.604;2023-01-27T03:32:04;100222.13;;;1.19;99.63
28628;BME280;15815;46.760;19.604;2023-01-27T03:34:30;100207.59;;;1.22;99.43
28628;BME280;15815;46.760;19.604;2023-01-27T03:36:55;100188.22;;;1.10;99.33
28628;BME280;15815;46.760;19.604;2023-01-27T03:39:22;100206.00;;;1.21;99.16
28628;BME280;15815;46.760;19.604;2023-01-27T03:41:47;100201.59;;;1.20;98.96
28628;BME280;15815;46.760;19.604;2023-01-27T03:44:13;100200.91;;;1.23;99.16
28628;BME280;15815;46.760;19.604;2023-01-27T03:46:39;100193.06;;;1.25;99.23
28628;BME280;15815;46.760;19.604;2023-01-27T03:49:05;100195.84;;;1.25;98.43
28628;BME280;15815;46.760;19.604;2023-01-27T03:51:30;100181.31;;;1.16;99.18
28628;BME280;15815;46.760;19.604;2023-01-27T03:53:59;100200.22;;;1.26;98.57
28628;BME280;15815;46.760;19.604;2023-01-27T03:56:24;100188.00;;;1.15;98.26
28628;BME280;15815;46.760;19.604;2023-01-27T03:58:50;100196.06;;;1.20;97.55
28628;BME280;15815;46.760;19.604;2023-01-27T04:01:18;100194.56;;;1.22;97.51
28628;BME280;15815;46.760;19.604;2023-01-27T04:03:45;100174.84;;;1.12;97.50
28628;BME280;15815;46.760;19.604;2023-01-27T04:06:14;100187.41;;;1.21;97.54
28628;BME280;15815;46.760;19.604;2023-01-27T04:08:43;100176.22;;;1.18;97.25
28628;BME280;15815;46.760;19.604;2023-01-27T04:11:09;100183.59;;;1.26;96.38
28628;BME280;15815;46.760;19.604;2023-01-27T04:13:34;100166.88;;;1.10;97.18
28628;BME280;15815;46.760;19.604;2023-01-27T04:16:00;100167.94;;;1.18;96.77
28628;BME280;15815;46.760;19.604;2023-01-27T04:18:27;100180.84;;;1.26;97.19
28628;BME280;15815;46.760;19.604;2023-01-27T04:20:53;100175.75;;;1.28;96.63
28628;BME280;15815;46.760;19.604;2023-01-27T04:23:18;100166.06;;;1.22;95.49
28628;BME280;15815;46.760;19.604;2023-01-27T04:25:45;100171.50;;;1.18;95.92
28628;BME280;15815;46.760;19.604;2023-01-27T04:28:10;100140.91;;;1.03;95.48
28628;BME280;15815;46.760;19.604;2023-01-27T04:30:36;100178.28;;;1.33;95.92
28628;BME280;15815;46.760;19.604;2023-01-27T04:33:01;100162.50;;;1.21;95.73
28628;BME280;15815;46.760;19.604;2023-01-27T04:35:27;100161.22;;;1.19;95.72
28628;BME280;15815;46.760;19.604;2023-01-27T04:37:52;100157.31;;;1.20;96.34
28628;BME280;15815;46.760;19.604;2023-01-27T04:40:18;100179.00;;;1.30;96.09
28628;BME280;15815;46.760;19.604;2023-01-27T04:42:44;100173.81;;;1.29;96.56
28628;BME280;15815;46.760;19.604;2023-01-27T04:45:09;100173.22;;;1.23;95.89
28628;BME280;15815;46.760;19.604;2023-01-27T04:47:35;100175.06;;;1.31;96.29
28628;BME280;15815;46.760;19.604;2023-01-27T04:50:00;100166.06;;;1.22;96.19
28628;BME280;15815;46.760;19.604;2023-01-27T04:52:26;100179.91;;;1.34;96.56
28628;BME280;15815;46.760;19.604;2023-01-27T04:54:54;100161.34;;;1.22;96.19
28628;BME280;15815;46.760;19.604;2023-01-27T04:57:20;100173.56;;;1.34;96.22
28628;BME280;15815;46.760;19.604;2023-01-27T04:59:45;100179.69;;;1.27;96.13
28628;BME280;15815;46.760;19.604;2023-01-27T05:02:11;100162.84;;;1.20;95.67
28628;BME280;15815;46.760;19.604;2023-01-27T05:04:36;100168.63;;;1.27;96.49
28628;BME280;15815;46.760;19.604;2023-01-27T05:07:02;100174.16;;;1.27;96.34
28628;BME280;15815;46.760;19.604;2023-01-27T05:09:27;100173.00;;;1.28;96.16
28628;BME280;15815;46.760;19.604;2023-01-27T05:11:53;100158.00;;;1.17;96.02
28628;BME280;15815;46.760;19.604;2023-01-27T05:14:18;100169.75;;;1.26;96.46
28628;BME280;15815;46.760;19.604;2023-01-27T05:16:44;100168.97;;;1.26;96.12
28628;BME280;15815;46.760;19.604;2023-01-27T05:19:10;100180.59;;;1.31;95.79
28628;BME280;15815;46.760;19.604;2023-01-27T05:21:35;100172.19;;;1.28;96.10
28628;BME280;15815;46.760;19.604;2023-01-27T05:24:03;100184.19;;;1.19;96.09
28628;BME280;15815;46.760;19.604;2023-01-27T05:26:32;100158.09;;;1.08;96.24
28628;BME280;15815;46.760;19.604;2023-01-27T05:28:58;100177.97;;;1.22;95.70
28628;BME280;15815;46.760;19.604;2023-01-27T05:31:28;100189.84;;;1.35;96.13
28628;BME280;15815;46.760;19.604;2023-01-27T05:33:55;100185.44;;;1.34;95.28
28628;BME280;15815;46.760;19.604;2023-01-27T05:36:22;100184.28;;;1.35;95.51
28628;BME280;15815;46.760;19.604;2023-01-27T05:38:48;100187.31;;;1.30;95.69
28628;BME280;15815;46.760;19.604;2023-01-27T05:41:15;100193.88;;;1.26;94.99
28628;BME280;15815;46.760;19.604;2023-01-27T05:43:42;100185.34;;;1.18;95.23
28628;BME280;15815;46.760;19.604;2023-01-27T05:46:16;100182.91;;;1.29;94.82
28628;BME280;15815;46.760;19.604;2023-01-27T05:48:49;100182.56;;;1.31;94.90
28628;BME280;15815;46.760;19.604;2023-01-27T05:51:17;100185.69;;;1.29;94.98
28628;BME280;15815;46.760;19.604;2023-01-27T05:53:43;100188.69;;;1.24;95.14
28628;BME280;15815;46.760;19.604;2023-01-27T05:56:10;100171.63;;;1.22;95.02
28628;BME280;15815;46.760;19.604;2023-01-27T05:58:37;100179.00;;;1.30;94.79
28628;BME280;15815;46.760;19.604;2023-01-27T06:01:08;100180.84;;;1.26;94.91
28628;BME280;15815;46.760;19.604;2023-01-27T06:03:38;100189.72;;;1.32;94.79
28628;BME280;15815;46.760;19.604;2023-01-27T06:06:04;100194.00;;;1.29;94.89
28628;BME280;15815;46.760;19.604;2023-01-27T06:08:30;100185.69;;;1.29;94.99
28628;BME280;15815;46.760;19.604;2023-01-27T06:10:57;100184.53;;;1.30;94.63
28628;BME280;15815;46.760;19.604;2023-01-27T06:13:23;100196.88;;;1.33;94.41
28628;BME280;15815;46.760;19.604;2023-01-27T06:15:50;100157.78;;;1.10;94.23
28628;BME280;15815;46.760;19.604;2023-01-27T06:18:17;100177.84;;;1.19;93.82
28628;BME280;15815;46.760;19.604;2023-01-27T06:20:44;100193.88;;;1.26;94.23
28628;BME280;15815;46.760;19.604;2023-01-27T06:23:12;100195.59;;;1.30;94.47
28628;BME280;15815;46.760;19.604;2023-01-27T06:25:40;100195.16;;;1.28;94.43
28628;BME280;15815;46.760;19.604;2023-01-27T06:28:09;100175.88;;;1.19;94.26
28628;BME280;15815;46.760;19.604;2023-01-27T06:30:36;100190.19;;;1.34;94.21
28628;BME280;15815;46.760;19.604;2023-01-27T06:33:05;100206.44;;;1.35;94.48
28628;BME280;15815;46.760;19.604;2023-01-27T06:35:32;100196.41;;;1.31;94.54
28628;BME280;15815;46.760;19.604;2023-01-27T06:38:00;100195.88;;;1.37;94.64
28628;BME280;15815;46.760;19.604;2023-01-27T06:40:28;100201.59;;;1.32;94.54
28628;BME280;15815;46.760;19.604;2023-01-27T06:42:54;100195.59;;;1.30;94.20
28628;BME280;15815;46.760;19.604;2023-01-27T06:45:20;100194.00;;;1.29;94.34
28628;BME280;15815;46.760;19.604;2023-01-27T06:47:56;100210.16;;;1.39;94.41
28628;BME280;15815;46.760;19.604;2023-01-27T06:50:23;100177.16;;;1.22;94.19
28628;BME280;15815;46.760;19.604;2023-01-27T06:52:49;100189.72;;;1.32;94.55
28628;BME280;15815;46.760;19.604;2023-01-27T06:55:15;100212.69;;;1.44;94.59
28628;BME280;15815;46.760;19.604;2023-01-27T06:57:41;100202.88;;;1.35;94.21
28628;BME280;15815;46.760;19.604;2023-01-27T07:00:10;100179.56;;;1.23;94.45
28628;BME280;15815;46.760;19.604;2023-01-27T07:02:35;100201.59;;;1.32;94.63
28628;BME280;15815;46.760;19.604;2023-01-27T07:05:05;100205.78;;;1.38;94.79
28628;BME280;15815;46.760;19.604;2023-01-27T07:07:31;100201.88;;;1.39;94.94
28628;BME280;15815;46.760;19.604;2023-01-27T07:09:57;100200.00;;;1.43;95.12
28628;BME280;15815;46.760;19.604;2023-01-27T07:12:23;100203.94;;;1.42;95.20
28628;BME280;15815;46.760;19.604;2023-01-27T07:14:49;100199.31;;;1.46;95.25
28628;BME280;15815;46.760;19.604;2023-01-27T07:17:14;100194.09;;;1.33;95.11
28628;BME280;15815;46.760;19.604;2023-01-27T07:19:40;100203.00;;;1.38;95.51
28628;BME280;15815;46.760;19.604;2023-01-27T07:22:05;100186.41;;;1.38;95.29
28628;BME280;15815;46.760;19.604;2023-01-27T07:24:31;100173.22;;;1.23;94.86
28628;BME280;15815;46.760;19.604;2023-01-27T07:26:56;100172.75;;;1.33;95.14
28628;BME280;15815;46.760;19.604;2023-01-27T07:29:22;100189.84;;;1.47;94.54
28628;BME280;15815;46.760;19.604;2023-01-27T07:31:47;100190.31;;;1.37;94.75
28628;BME280;15815;46.760;19.604;2023-01-27T07:34:13;100191.47;;;1.48;94.85
28628;BME280;15815;46.760;19.604;2023-01-27T07:36:38;100199.41;;;1.62;93.98
28628;BME280;15815;46.760;19.604;2023-01-27T07:39:04;100198.41;;;1.67;93.84
28628;BME280;15815;46.760;19.604;2023-01-27T07:41:29;100185.69;;;1.66;94.03
28628;BME280;15815;46.760;19.604;2023-01-27T07:43:55;100191.56;;;1.76;93.75
28628;BME280;15815;46.760;19.604;2023-01-27T07:46:21;100189.09;;;1.87;92.99
28628;BME280;15815;46.760;19.604;2023-01-27T07:48:46;100195.34;;;1.96;93.07
28628;BME280;15815;46.760;19.604;2023-01-27T07:51:13;100200.66;;;2.01;93.21
28628;BME280;15815;46.760;19.604;2023-01-27T07:53:39;100188.19;;;1.95;92.49
28628;BME280;15815;46.760;19.604;2023-01-27T07:56:05;100187.50;;;1.98;93.21
28628;BME280;15815;46.760;19.604;2023-01-27T07:58:30;100181.94;;;1.98;92.44
28628;BME280;15815;46.760;19.604;2023-01-27T08:00:56;100192.09;;;2.06;91.92
28628;BME280;15815;46.760;19.604;2023-01-27T08:03:23;100188.03;;;2.04;91.32
28628;BME280;15815;46.760;19.604;2023-01-27T08:05:50;100194.34;;;2.16;92.49
28628;BME280;15815;46.760;19.604;2023-01-27T08:08:16;100190.41;;;2.30;92.69
28628;BME280;15815;46.760;19.604;2023-01-27T08:10:46;100171.25;;;2.12;91.66
28628;BME280;15815;46.760;19.604;2023-01-27T08:13:12;100191.34;;;2.22;91.08
28628;BME280;15815;46.760;19.604;2023-01-27T08:15:37;100156.84;;;2.07;91.40
28628;BME280;15815;46.760;19.604;2023-01-27T08:18:03;100180.03;;;2.14;91.10
28628;BME280;15815;46.760;19.604;2023-01-27T08:20:28;100171.25;;;2.25;91.47
28628;BME280;15815;46.760;19.604;2023-01-27T08:22:54;100170.19;;;2.29;91.00
28628;BME280;15815;46.760;19.604;2023-01-27T08:25:20;100203.06;;;2.43;91.06
28628;BME280;15815;46.760;19.604;2023-01-27T08:27:51;100178.50;;;2.29;90.72
28628;BME280;15815;46.760;19.604;2023-01-27T08:30:18;100196.25;;;2.40;90.87
28628;BME280;15815;46.760;19.604;2023-01-27T08:32:43;100192.66;;;2.40;90.14
28628;BME280;15815;46.760;19.604;2023-01-27T08:35:09;100164.28;;;2.31;89.87
28628;BME280;15815;46.760;19.604;2023-01-27T08:37:35;100187.22;;;2.43;89.74
28628;BME280;15815;46.760;19.604;2023-01-27T08:40:00;100182.47;;;2.44;89.61
28628;BME280;15815;46.760;19.604;2023-01-27T08:42:26;100179.59;;;2.40;89.12
28628;BME280;15815;46.760;19.604;2023-01-27T08:44:51;100202.91;;;2.52;88.54
28628;BME280;15815;46.760;19.604;2023-01-27T08:47:18;100175.47;;;2.34;87.51
28628;BME280;15815;46.760;19.604;2023-01-27T08:49:43;100168.06;;;2.38;88.86
28628;BME280;15815;46.760;19.604;2023-01-27T08:52:09;100187.53;;;2.54;88.57
28628;BME280;15815;46.760;19.604;2023-01-27T08:54:34;100194.97;;;2.66;88.80
28628;BME280;15815;46.760;19.604;2023-01-27T08:57:00;100193.00;;;2.66;89.00
28628;BME280;15815;46.760;19.604;2023-01-27T08:59:27;100192.06;;;2.74;89.42
28628;BME280;15815;46.760;19.604;2023-01-27T09:01:52;100200.03;;;2.76;88.88
28628;BME280;15815;46.760;19.604;2023-01-27T09:04:18;100209.09;;;2.89;89.34
28628;BME280;15815;46.760;19.604;2023-01-27T09:06:43;100181.56;;;2.68;87.03
28628;BME280;15815;46.760;19.604;2023-01-27T09:09:09;100212.50;;;2.82;87.36
28628;BME280;15815;46.760;19.604;2023-01-27T09:11:36;100210.72;;;2.90;87.50
28628;BME280;15815;46.760;19.604;2023-01-27T09:14:05;100211.69;;;2.97;86.91
28628;BME280;15815;46.760;19.604;2023-01-27T09:16:31;100206.34;;;3.04;88.19
28628;BME280;15815;46.760;19.604;2023-01-27T09:18:57;100214.69;;;3.20;88.07
28628;BME280;15815;46.760;19.604;2023-01-27T09:21:24;100212.34;;;3.22;88.18
28628;BME280;15815;46.760;19.604;2023-01-27T09:23:50;100219.25;;;3.28;87.40
28628;BME280;15815;46.760;19.604;2023-01-27T09:26:17;100210.47;;;3.26;88.49
28628;BME280;15815;46.760;19.604;2023-01-27T09:28:45;100203.66;;;3.24;87.25
28628;BME280;15815;46.760;19.604;2023-01-27T09:31:11;100200.00;;;3.35;87.49
28628;BME280;15815;46.760;19.604;2023-01-27T09:33:37;100203.31;;;3.41;88.34
28628;BME280;15815;46.760;19.604;2023-01-27T09:36:07;100214.75;;;3.55;88.65
28628;BME280;15815;46.760;19.604;2023-01-27T09:38:38;100200.63;;;3.60;88.42
28628;BME280;15815;46.760;19.604;2023-01-27T10:00:17;100219.31;;;3.79;84.29
28628;BME280;15815;46.760;19.604;2023-01-27T10:28:26;100188.34;;;3.46;83.43
28628;BME280;15815;46.760;19.604;2023-01-27T10:30:58;100185.56;;;3.46;83.73
28628;BME280;15815;46.760;19.604;2023-01-27T10:33:56;100184.22;;;3.39;83.04
28628;BME280;15815;46.760;19.604;2023-01-27T10:36:27;100184.94;;;3.36;83.40
28628;BME280;15815;46.760;19.604;2023-01-27T10:50:08;100190.66;;;3.44;83.65
28628;BME280;15815;46.760;19.604;2023-01-27T10:52:46;100196.47;;;3.54;84.26
28628;BME280;15815;46.760;19.604;2023-01-27T10:55:21;100194.69;;;3.62;84.23
28628;BME280;15815;46.760;19.604;2023-01-27T10:57:58;100185.56;;;3.61;84.12
28628;BME280;15815;46.760;19.604;2023-01-27T11:00:38;100183.75;;;3.69;83.95
28628;BME280;15815;46.760;19.604;2023-01-27T11:03:25;100181.13;;;3.76;83.04
28628;BME280;15815;46.760;19.604;2023-01-27T11:06:02;100178.41;;;3.80;83.77
28628;BME280;15815;46.760;19.604;2023-01-27T11:08:32;100172.94;;;3.83;83.38
28628;BME280;15815;46.760;19.604;2023-01-27T11:11:02;100168.00;;;3.92;83.54
28628;BME280;15815;46.760;19.604;2023-01-27T11:13:32;100162.44;;;3.92;82.71
28628;BME280;15815;46.760;19.604;2023-01-27T11:15:59;100152.25;;;4.00;81.98
28628;BME280;15815;46.760;19.604;2023-01-27T11:18:30;100163.34;;;4.16;82.26
28628;BME280;15815;46.760;19.604;2023-01-27T11:21:02;100152.28;;;4.39;82.68
28628;BME280;15815;46.760;19.604;2023-01-27T11:23:37;100162.75;;;4.45;82.35
28628;BME280;15815;46.760;19.604;2023-01-27T11:32:17;100153.31;;;4.30;81.02
28628;BME280;15815;46.760;19.604;2023-01-27T11:35:10;100161.59;;;4.27;81.99
28628;BME280;15815;46.760;19.604;2023-01-27T11:37:38;100155.88;;;4.20;82.50
28628;BME280;15815;46.760;19.604;2023-01-27T11:40:31;100150.31;;;4.20;80.40
28628;BME280;15815;46.760;19.604;2023-01-27T11:42:58;100148.91;;;4.29;82.82
28628;BME280;15815;46.760;19.604;2023-01-27T11:45:26;100153.59;;;4.25;80.66
28628;BME280;15815;46.760;19.604;2023-01-27T11:47:56;100136.47;;;4.23;82.05
28628;BME280;15815;46.760;19.604;2023-01-27T11:50:26;100132.66;;;4.31;81.33
28628;BME280;15815;46.760;19.604;2023-01-27T11:53:13;100126.88;;;4.40;81.61
28628;BME280;15815;46.760;19.604;2023-01-27T11:56:02;100128.50;;;4.41;80.59
28628;BME280;15815;46.760;19.604;2023-01-27T11:58:44;100117.94;;;4.50;81.49
28628;BME280;15815;46.760;19.604;2023-01-27T12:01:21;100108.84;;;4.53;81.62
28628;BME280;15815;46.760;19.604;2023-01-27T12:03:59;100120.88;;;4.80;80.67
28628;BME280;15815;46.760;19.604;2023-01-27T12:09:36;100115.66;;;6.04;78.23
28628;BME280;15815;46.760;19.604;2023-01-27T12:14:53;100118.13;;;6.42;80.04
28628;BME280;15815;46.760;19.604;2023-01-27T12:17:34;100099.47;;;6.16;76.29
28628;BME280;15815;46.760;19.604;2023-01-27T12:28:42;100109.19;;;6.30;75.37
28628;BME280;15815;46.760;19.604;2023-01-27T12:31:19;100120.94;;;6.12;80.59
28628;BME280;15815;46.760;19.604;2023-01-27T12:33:58;100114.31;;;5.94;78.28
28628;BME280;15815;46.760;19.604;2023-01-27T12:36:25;100105.03;;;5.86;79.36
28628;BME280;15815;46.760;19.604;2023-01-27T12:38:56;100113.53;;;5.94;78.76
28628;BME280;15815;46.760;19.604;2023-01-27T12:41:27;100109.41;;;5.57;77.35
28628;BME280;15815;46.760;19.604;2023-01-27T12:44:16;100120.13;;;5.29;77.12
28628;BME280;15815;46.760;19.604;2023-01-27T12:47:14;100121.63;;;5.00;76.30
28628;BME280;15815;46.760;19.604;2023-01-27T12:49:43;100113.19;;;4.74;78.19
28628;BME280;15815;46.760;19.604;2023-01-27T12:52:20;100100.19;;;4.58;77.64
28628;BME280;15815;46.760;19.604;2023-01-27T12:54:46;100097.03;;;4.60;78.23
28628;BME280;15815;46.760;19.604;2023-01-27T12:57:19;100119.28;;;4.60;77.72
28628;BME280;15815;46.760;19.604;2023-01-27T12:59:56;100117.63;;;4.55;78.52
28628;BME280;15815;46.760;19.604;2023-01-27T13:02:29;100128.63;;;4.29;77.18
28628;BME280;15815;46.760;19.604;2023-01-27T13:05:04;100106.69;;;4.24;78.60
28628;BME280;15815;46.760;19.604;2023-01-27T13:07:50;100105.50;;;4.06;77.99
28628;BME280;15815;46.760;19.604;2023-01-27T13:10:24;100129.53;;;4.14;77.76
28628;BME280;15815;46.760;19.604;2023-01-27T13:12:53;100103.75;;;3.97;79.06
28628;BME280;15815;46.760;19.604;2023-01-27T13:15:23;100131.41;;;4.10;79.17
28628;BME280;15815;46.760;19.604;2023-01-27T13:17:58;100131.88;;;4.12;80.09
28628;BME280;15815;46.760;19.604;2023-01-27T13:20:34;100133.16;;;3.98;79.27
28628;BME280;15815;46.760;19.604;2023-01-27T13:23:10;100127.16;;;3.96;79.40
28628;BME280;15815;46.760;19.604;2023-01-27T13:25:44;100111.78;;;3.83;79.24
28628;BME280;15815;46.760;19.604;2023-01-27T13:28:19;100112.59;;;3.84;79.13
28628;BME280;15815;46.760;19.604;2023-01-27T13:30:50;100135.44;;;3.93;78.86
28628;BME280;15815;46.760;19.604;2023-01-27T13:33:35;100122.19;;;3.86;79.60
28628;BME280;15815;46.760;19.604;2023-01-27T13:44:35;100112.94;;;3.82;81.20
28628;BME280;15815;46.760;19.604;2023-01-27T13:47:08;100117.00;;;3.85;80.09
28628;BME280;15815;46.760;19.604;2023-01-27T13:49:56;100114.19;;;3.65;80.09
28628;BME280;15815;46.760;19.604;2023-01-27T13:52:25;100123.91;;;3.75;80.83
28628;BME280;15815;46.760;19.604;2023-01-27T13:54:51;100115.72;;;3.63;80.90
28628;BME280;15815;46.760;19.604;2023-01-27T14:00:05;100120.19;;;3.52;81.64
28628;BME280;15815;46.760;19.604;2023-01-27T14:02:44;100125.50;;;3.57;82.36
28628;BME280;15815;46.760;19.604;2023-01-27T14:13:55;100125.28;;;3.30;82.59
28628;BME280;15815;46.760;19.604;2023-01-27T14:27:29;100123.84;;;3.21;84.32
28628;BME280;15815;46.760;19.604;2023-01-27T14:30:24;100124.84;;;3.13;84.02
28628;BME280;15815;46.760;19.604;2023-01-27T14:39:01;100128.69;;;3.08;84.91
28628;BME280;15815;46.760;19.604;2023-01-27T14:46:43;100142.63;;;2.96;84.82
28628;BME280;15815;46.760;19.604;2023-01-27T14:51:57;100105.22;;;2.74;86.39
28628;BME280;15815;46.760;19.604;2023-01-27T15:06:07;100152.84;;;2.76;86.28
28628;BME280;15815;46.760;19.604;2023-01-27T15:27:43;100156.97;;;2.38;88.16
28628;BME280;15815;46.760;19.604;2023-01-27T15:30:27;100167.44;;;2.45;88.48
28628;BME280;15815;46.760;19.604;2023-01-27T15:32:54;100148.50;;;2.47;88.21
28628;BME280;15815;46.760;19.604;2023-01-27T15:35:37;100173.47;;;2.47;88.35
28628;BME280;15815;46.760;19.604;2023-01-27T15:41:22;100175.41;;;2.46;88.50
28628;BME280;15815;46.760;19.604;2023-01-27T15:46:36;100171.63;;;2.39;89.85